This is the latest recevied weather packets stored in our database for station/object IU5JAE-13. If no packets are shown the sender has not sent any weather packets the latest 1 day(s).
| Time | Temp. | Humidity | Pressure | Rain* | Wind** | Luminosity | Snow |
|---|---|---|---|---|---|---|---|
| 1836274697 | 18.89° C | 76% | 1025.9 hPa | 0 mm | 0 m/s | 0 W/m² | - |
| 1836274550 | 18.33° C | 81% | 1025.8 hPa | 0 mm | 0 m/s | 0 W/m² | - |
| 1836274094 | 19.44° C | 75% | 1025.8 hPa | 0 mm | 0.45 m/s, 205° | 0 W/m² | - |
| 1778019333 | 13.89° C | 99% | 1012.2 hPa | 2.79 mm | 1.34 m/s, 195° | 0 W/m² | - |
| 1778018731 | 13.89° C | 99% | 1012.1 hPa | 4.32 mm | 1.34 m/s, 209° | 0 W/m² | - |
| 1778018128 | 13.89° C | 99% | 1012 hPa | 4.83 mm | 0.89 m/s, 185° | 0 W/m² | - |
| 1778017526 | 13.89° C | 99% | 1012 hPa | 5.33 mm | 0.45 m/s, 224° | 0 W/m² | - |
| 1778016923 | 13.89° C | 99% | 1012.2 hPa | 5.33 mm | 0.45 m/s, 209° | 0 W/m² | - |
| 1778016321 | 13.89° C | 99% | 1012.6 hPa | 4.06 mm | 1.79 m/s, 201° | 0 W/m² | - |
| 1778015718 | 13.89° C | 99% | 1012.6 hPa | 3.05 mm | 1.79 m/s, 218° | 0 W/m² | - |
| 1778015116 | 13.89° C | 99% | 1012.4 hPa | 1.52 mm | 1.34 m/s, 106° | 0 W/m² | - |
| 1778014534 | 13.89° C | 99% | 1012.6 hPa | 1.02 mm | 1.34 m/s, 168° | 0 W/m² | - |
| 1778013931 | 14.44° C | 99% | 1012.7 hPa | 0.25 mm | 0.89 m/s, 176° | 0 W/m² | - |
| 1778013329 | 13.89° C | 98% | 1012.9 hPa | 0.51 mm | 0.45 m/s, 86° | 0 W/m² | - |
| 1778012726 | 14.44° C | 98% | 1012.7 hPa | 0.51 mm | 0 m/s | 0 W/m² | - |
| 1778012124 | 14.44° C | 98% | 1012.7 hPa | 0.76 mm | 0.89 m/s, 83° | 0 W/m² | - |
| 1778011522 | 14.44° C | 98% | 1012.8 hPa | 1.02 mm | 0 m/s | 0 W/m² | - |
| 1778010919 | 14.44° C | 98% | 1013 hPa | 1.02 mm | 0.45 m/s, 190° | 0 W/m² | - |
| 1778009735 | 14.44° C | 98% | 1012.7 hPa | 0.76 mm | 0 m/s | 0 W/m² | - |
| 1778009132 | 14.44° C | 98% | 1012.5 hPa | 0.76 mm | 0 m/s | 0 W/m² | - |
| 1778008530 | 14.44° C | 97% | 1012.6 hPa | 0.51 mm | 0 m/s | 0 W/m² | - |
| 1778007936 | 14.44° C | 97% | 1012.6 hPa | 0 mm | 0 m/s | 0 W/m² | - |
| 1778007325 | 13.89° C | 97% | 1012.5 hPa | 0 mm | 0 m/s | 0 W/m² | - |
| 1778006723 | 14.44° C | 96% | 1012.5 hPa | 0 mm | 0 m/s | 0 W/m² | - |
| 1778004915 | 14.44° C | 96% | 1012.4 hPa | 0 mm | 0.45 m/s, 71° | 6 W/m² | - |
* Rain latest hour (hover to see other rain measurements)
** Current wind speed in m/s (hover to see current wind gust speed)